createdAt,value
2023-06-18T00:02:12.062Z,12.10
2023-06-18T00:04:38.828Z,11.90
2023-06-18T00:07:06.241Z,11.30
2023-06-18T00:09:35.467Z,12.30
2023-06-18T00:12:02.199Z,11.60
2023-06-18T00:14:31.170Z,13.10
2023-06-18T00:19:25.541Z,12.30
2023-06-18T00:21:53.021Z,12.50
2023-06-18T00:24:20.185Z,12.20
2023-06-18T00:26:47.258Z,11.60
2023-06-18T00:29:13.954Z,12.60
2023-06-18T00:31:45.189Z,11.60
2023-06-18T00:36:44.652Z,12.00
2023-06-18T00:39:11.701Z,11.80
2023-06-18T00:41:41.757Z,11.90
2023-06-18T00:44:11.479Z,12.80
2023-06-18T00:46:38.593Z,11.60
2023-06-18T00:49:09.524Z,11.10
2023-06-18T00:54:05.437Z,11.90
2023-06-18T00:56:33.146Z,12.00
2023-06-18T00:59:02.225Z,12.00
2023-06-18T01:01:31.109Z,12.10
2023-06-18T01:04:01.346Z,12.50
2023-06-18T01:06:29.328Z,11.90
2023-06-18T01:08:57.248Z,11.50
2023-06-18T01:11:30.188Z,12.20
2023-06-18T01:14:02.792Z,11.80
2023-06-18T01:16:31.918Z,11.20
2023-06-18T01:19:02.990Z,11.60
2023-06-18T01:21:36.218Z,11.50
2023-06-18T01:24:20.169Z,11.60
2023-06-18T01:26:50.559Z,11.60
2023-06-18T01:29:20.079Z,11.60
2023-06-18T01:31:46.792Z,11.60
2023-06-18T01:34:13.971Z,10.90
2023-06-18T01:36:51.106Z,11.90
2023-06-18T01:39:48.451Z,11.10
2023-06-18T01:42:22.401Z,11.20
2023-06-18T01:45:03.564Z,10.70
2023-06-18T01:47:31.696Z,11.30
2023-06-18T01:50:01.984Z,11.20
2023-06-18T01:52:34.188Z,11.00
2023-06-18T01:55:03.257Z,11.10
2023-06-18T01:57:33.444Z,11.00
2023-06-18T02:00:01.354Z,11.10
2023-06-18T02:02:28.256Z,10.70
2023-06-18T02:04:55.443Z,11.80
2023-06-18T02:07:22.270Z,11.00
2023-06-18T02:09:49.120Z,11.40
2023-06-18T02:12:18.287Z,11.20
2023-06-18T02:14:45.087Z,11.00
2023-06-18T02:17:14.060Z,10.50
2023-06-18T02:19:40.907Z,11.50
2023-06-18T02:22:07.695Z,10.80
2023-06-18T02:24:34.677Z,10.70
2023-06-18T02:27:01.565Z,10.80
2023-06-18T02:29:32.806Z,11.20
2023-06-18T02:31:59.672Z,11.70
2023-06-18T02:34:30.214Z,10.60
2023-06-18T02:36:57.030Z,12.00
2023-06-18T02:39:26.381Z,10.80
2023-06-18T02:41:53.170Z,11.10
2023-06-18T02:46:52.518Z,10.90
2023-06-18T02:49:19.560Z,10.70
2023-06-18T02:51:46.319Z,10.80
2023-06-18T02:54:15.802Z,10.00
2023-06-18T02:56:43.184Z,10.60
2023-06-18T02:59:09.980Z,10.80
2023-06-18T03:01:37.717Z,11.30
2023-06-18T03:04:07.004Z,10.60
2023-06-18T03:06:38.621Z,10.70
2023-06-18T03:09:05.635Z,10.60
2023-06-18T03:11:32.459Z,10.70
2023-06-18T03:16:27.821Z,11.10
2023-06-18T03:18:54.699Z,10.30
2023-06-18T03:21:21.848Z,11.20
2023-06-18T03:23:49.348Z,11.30
2023-06-18T03:26:18.406Z,11.40
2023-06-18T03:31:15.091Z,10.70
2023-06-18T03:33:41.900Z,10.50
2023-06-18T03:36:08.859Z,10.10
2023-06-18T03:38:35.587Z,10.40
2023-06-18T03:41:05.175Z,10.10
2023-06-18T03:43:32.467Z,10.70
2023-06-18T03:46:01.415Z,10.80
2023-06-18T03:48:28.510Z,11.70
2023-06-18T03:50:57.655Z,10.90
2023-06-18T03:53:24.341Z,11.40
2023-06-18T03:55:51.366Z,10.70
2023-06-18T03:58:23.240Z,11.80
2023-06-18T04:00:50.052Z,10.70
2023-06-18T04:03:16.909Z,10.20
2023-06-18T04:05:44.120Z,12.00
2023-06-18T04:08:13.560Z,11.60
2023-06-18T04:10:41.903Z,10.40
2023-06-18T04:13:11.868Z,10.50
2023-06-18T04:15:38.685Z,12.00
2023-06-18T04:18:05.936Z,12.70
2023-06-18T04:20:33.063Z,11.30
2023-06-18T04:22:59.832Z,11.30
2023-06-18T04:25:26.784Z,12.00
2023-06-18T04:27:54.063Z,12.20
2023-06-18T04:30:23.224Z,11.70
2023-06-18T04:32:50.176Z,12.40
2023-06-18T04:35:22.443Z,12.40
2023-06-18T04:37:51.936Z,12.30
2023-06-18T04:40:19.524Z,12.20
2023-06-18T04:42:49.659Z,13.20
2023-06-18T04:45:19.052Z,11.60
2023-06-18T04:47:45.850Z,12.30
2023-06-18T04:50:15.653Z,11.40
2023-06-18T04:52:42.442Z,11.50
2023-06-18T04:55:09.609Z,11.70
2023-06-18T04:57:37.042Z,12.10
2023-06-18T05:00:05.874Z,12.50
2023-06-18T05:02:35.265Z,12.40
2023-06-18T05:05:08.087Z,12.30
2023-06-18T05:07:35.406Z,12.20
2023-06-18T05:10:02.489Z,12.60
2023-06-18T05:12:29.236Z,14.10
2023-06-18T05:14:58.417Z,13.20
2023-06-18T05:17:27.442Z,13.70
2023-06-18T05:19:54.379Z,13.50
2023-06-18T05:22:23.910Z,13.60
2023-06-18T05:24:52.958Z,13.50
2023-06-18T05:27:22.167Z,14.60
2023-06-18T05:29:48.944Z,14.40
2023-06-18T05:32:20.438Z,14.40
2023-06-18T05:34:52.312Z,14.10
2023-06-18T05:37:19.114Z,14.50
2023-06-18T05:39:46.722Z,14.80
2023-06-18T05:42:13.598Z,15.20
2023-06-18T05:44:42.632Z,15.30
2023-06-18T05:47:12.213Z,15.60
2023-06-18T05:49:38.948Z,15.30
2023-06-18T05:52:06.704Z,15.50
2023-06-18T05:54:36.580Z,15.70
2023-06-18T05:57:06.272Z,15.60
2023-06-18T05:59:33.137Z,15.60
2023-06-18T06:01:59.987Z,16.10
2023-06-18T06:04:27.954Z,15.70
2023-06-18T06:06:54.932Z,15.80
2023-06-18T06:09:24.014Z,15.70
2023-06-18T06:14:18.400Z,16.50
2023-06-18T06:16:47.514Z,16.20
2023-06-18T06:19:16.779Z,16.30
2023-06-18T06:24:13.639Z,17.10
2023-06-18T06:26:40.716Z,17.30
2023-06-18T06:31:34.836Z,17.20
2023-06-18T06:34:01.695Z,17.30
2023-06-18T06:36:30.691Z,17.50
2023-06-18T06:38:59.811Z,17.90
2023-06-18T06:41:28.685Z,17.90
2023-06-18T06:43:55.588Z,18.00
2023-06-18T06:46:24.769Z,18.20
2023-06-18T06:48:51.587Z,18.10
2023-06-18T06:53:48.126Z,18.50
2023-06-18T06:56:15.778Z,18.60
2023-06-18T06:58:43.074Z,19.30
2023-06-18T07:01:10.204Z,19.40
2023-06-18T07:03:39.153Z,19.40
2023-06-18T07:06:07.503Z,19.20
2023-06-18T07:08:36.752Z,19.50
2023-06-18T07:11:05.854Z,19.80
2023-06-18T07:13:32.633Z,20.10
2023-06-18T07:18:26.791Z,20.40
2023-06-18T07:20:53.563Z,20.60
2023-06-18T07:23:22.640Z,20.80
2023-06-18T07:25:51.522Z,20.90
2023-06-18T07:28:18.317Z,20.70
2023-06-18T07:30:47.330Z,20.50
2023-06-18T07:33:14.065Z,20.50
2023-06-18T07:35:40.946Z,20.90
2023-06-18T07:38:07.673Z,21.10
2023-06-18T07:43:06.138Z,21.80
2023-06-18T07:45:32.934Z,21.80
2023-06-18T07:48:02.010Z,22.00
2023-06-18T07:50:28.868Z,22.30
2023-06-18T07:53:00.298Z,22.50
2023-06-18T07:55:29.472Z,22.50
2023-06-18T07:57:57.240Z,22.50
2023-06-18T08:00:24.337Z,22.40
2023-06-18T08:02:53.956Z,22.40
2023-06-18T08:05:23.271Z,22.70
2023-06-18T08:07:49.986Z,22.90
2023-06-18T08:10:17.034Z,23.00
2023-06-18T08:12:46.274Z,23.30
2023-06-18T08:15:13.039Z,23.40
2023-06-18T08:17:39.812Z,23.60
2023-06-18T08:20:09.480Z,23.40
2023-06-18T08:22:37.116Z,23.30
2023-06-18T08:25:04.140Z,23.30
2023-06-18T08:27:30.852Z,23.40
2023-06-18T08:29:57.545Z,23.80
2023-06-18T08:32:24.387Z,24.00
2023-06-18T08:34:51.193Z,24.10
2023-06-18T08:37:20.448Z,24.00
2023-06-18T08:39:47.235Z,24.10
2023-06-18T08:44:48.502Z,24.60
2023-06-18T08:47:19.238Z,24.40
2023-06-18T08:49:48.346Z,24.30
2023-06-18T08:52:19.154Z,24.60
2023-06-18T08:54:50.866Z,24.50
2023-06-18T08:57:35.980Z,24.80
2023-06-18T09:00:04.790Z,24.70
2023-06-18T09:02:32.110Z,24.50
2023-06-18T09:05:02.017Z,24.50
2023-06-18T09:07:28.938Z,24.50
2023-06-18T09:09:56.559Z,24.60
2023-06-18T09:12:25.842Z,24.80
2023-06-18T09:14:53.135Z,25.00
2023-06-18T09:17:23.642Z,25.00
2023-06-18T09:19:51.231Z,24.80
2023-06-18T09:22:19.485Z,24.90
2023-06-18T09:24:46.280Z,25.30
2023-06-18T09:27:13.324Z,25.40
2023-06-18T09:29:42.445Z,25.40
2023-06-18T09:32:10.638Z,25.60
2023-06-18T09:34:38.465Z,25.40
2023-06-18T09:37:08.994Z,25.80
2023-06-18T09:39:41.479Z,25.60
2023-06-18T09:42:10.847Z,25.60
2023-06-18T09:44:38.162Z,25.70
2023-06-18T09:47:12.244Z,25.60
2023-06-18T09:52:11.175Z,26.20
2023-06-18T09:54:45.344Z,25.80
2023-06-18T09:57:14.515Z,25.80
2023-06-18T09:59:41.377Z,25.80
2023-06-18T10:02:15.208Z,25.80
2023-06-18T10:04:42.241Z,26.20
2023-06-18T10:07:16.950Z,26.60
2023-06-18T10:09:47.164Z,26.70
2023-06-18T10:12:18.432Z,26.60
2023-06-18T10:14:47.199Z,26.80
2023-06-18T10:17:27.759Z,26.80
2023-06-18T10:19:58.965Z,26.90
2023-06-18T10:22:31.863Z,27.00
2023-06-18T10:25:05.619Z,26.90
2023-06-18T10:27:33.552Z,26.80
2023-06-18T10:30:04.038Z,26.50
2023-06-18T10:32:33.463Z,27.00
2023-06-18T10:35:02.685Z,27.00
2023-06-18T10:37:36.172Z,26.80
2023-06-18T10:40:04.688Z,26.80
2023-06-18T10:42:35.905Z,27.00
2023-06-18T10:45:16.268Z,26.90
2023-06-18T10:47:44.240Z,27.40
2023-06-18T10:50:13.591Z,27.20
2023-06-18T10:52:42.936Z,27.10
2023-06-18T10:55:21.535Z,27.10
2023-06-18T10:57:57.050Z,26.90
2023-06-18T11:00:30.076Z,27.00
2023-06-18T11:03:00.871Z,27.20
2023-06-18T11:05:34.201Z,27.00
2023-06-18T11:08:14.414Z,27.40
2023-06-18T11:10:50.088Z,27.60
2023-06-18T11:13:28.425Z,28.00
2023-06-18T11:16:02.205Z,28.20
2023-06-18T11:18:30.902Z,28.00
2023-06-18T11:20:59.212Z,28.10
2023-06-18T11:23:27.576Z,28.00
2023-06-18T11:25:54.963Z,27.70
2023-06-18T11:28:27.878Z,27.90
2023-06-18T11:31:00.930Z,27.50
2023-06-18T11:33:33.718Z,27.30
2023-06-18T11:36:16.922Z,27.60
2023-06-18T11:38:45.269Z,28.00
2023-06-18T11:41:14.388Z,28.10
2023-06-18T11:43:51.665Z,28.10
2023-06-18T11:46:39.116Z,27.90
2023-06-18T11:49:15.134Z,28.10
2023-06-18T11:51:41.990Z,28.30
2023-06-18T11:54:08.813Z,27.90
2023-06-18T11:56:35.681Z,28.10
2023-06-18T11:59:04.064Z,28.20
2023-06-18T12:01:32.560Z,28.20
2023-06-18T12:04:09.804Z,28.50
2023-06-18T12:06:37.830Z,28.40
2023-06-18T12:09:07.444Z,28.50
2023-06-18T12:11:58.622Z,28.70
2023-06-18T12:14:31.875Z,28.70
2023-06-18T12:17:04.871Z,28.50
2023-06-18T12:19:32.061Z,28.70
2023-06-18T12:22:01.368Z,28.90
2023-06-18T12:24:30.464Z,28.70
2023-06-18T12:26:57.387Z,28.90
2023-06-18T12:29:27.146Z,28.60
2023-06-18T12:32:07.102Z,28.60
2023-06-18T12:37:04.223Z,28.80
2023-06-18T12:39:33.378Z,28.50
2023-06-18T12:42:03.129Z,28.60
2023-06-18T12:44:29.939Z,28.50
2023-06-18T12:47:00.841Z,28.50
2023-06-18T12:49:27.555Z,28.40
2023-06-18T12:51:55.745Z,28.20
2023-06-18T12:54:27.578Z,28.30
2023-06-18T12:56:55.758Z,28.40
2023-06-18T12:59:24.821Z,28.70
2023-06-18T13:06:52.508Z,29.10
2023-06-18T13:09:22.944Z,29.10
2023-06-18T13:11:49.676Z,29.20
2023-06-18T13:14:29.810Z,29.20
2023-06-18T13:17:02.651Z,29.30
2023-06-18T13:19:49.817Z,29.70
2023-06-18T13:24:48.379Z,29.20
2023-06-18T13:27:17.512Z,29.50
2023-06-18T13:29:44.307Z,29.80
2023-06-18T13:32:11.078Z,29.60
2023-06-18T13:34:38.123Z,29.50
2023-06-18T13:37:05.132Z,29.10
2023-06-18T13:39:34.085Z,28.90
2023-06-18T13:42:01.003Z,29.10
2023-06-18T13:44:29.903Z,29.20
2023-06-18T13:46:57.052Z,29.00
2023-06-18T13:49:23.750Z,29.10
2023-06-18T13:51:50.827Z,28.90
2023-06-18T13:54:23.773Z,28.70
2023-06-18T13:56:52.731Z,28.90
2023-06-18T13:59:21.633Z,28.90
2023-06-18T14:01:48.740Z,29.00
2023-06-18T14:04:15.679Z,29.40
2023-06-18T14:06:42.700Z,29.60
2023-06-18T14:09:11.641Z,29.70
2023-06-18T14:11:38.871Z,29.80
2023-06-18T14:14:05.628Z,29.90
2023-06-18T14:16:32.383Z,30.00
2023-06-18T14:19:01.644Z,30.00
2023-06-18T14:21:31.192Z,30.00
2023-06-18T14:24:02.943Z,30.10
2023-06-18T14:26:32.476Z,30.20
2023-06-18T14:28:59.530Z,30.40
2023-06-18T14:31:26.750Z,30.60
2023-06-18T14:34:07.780Z,30.60
2023-06-18T14:36:39.832Z,30.60
2023-06-18T14:39:08.609Z,31.00
2023-06-18T14:44:05.373Z,30.90
2023-06-18T14:46:32.130Z,30.20
2023-06-18T14:49:01.642Z,29.90
2023-06-18T14:51:30.714Z,30.40
2023-06-18T14:54:04.525Z,30.70
2023-06-18T14:56:32.283Z,30.70
2023-06-18T14:59:05.990Z,30.60
2023-06-18T15:01:33.444Z,30.80
2023-06-18T15:04:03.941Z,30.90
2023-06-18T15:06:30.839Z,30.60
2023-06-18T15:09:00.030Z,30.60
2023-06-18T15:11:32.310Z,30.30
2023-06-18T15:14:01.987Z,30.30
2023-06-18T15:16:32.709Z,30.20
2023-06-18T15:19:01.944Z,30.10
2023-06-18T15:21:30.846Z,30.40
2023-06-18T15:23:59.918Z,30.30
2023-06-18T15:26:29.505Z,29.70
2023-06-18T15:28:56.354Z,29.60
2023-06-18T15:31:23.088Z,29.80
2023-06-18T15:33:51.062Z,29.90
2023-06-18T15:36:17.824Z,29.80
2023-06-18T15:38:50.743Z,29.90
2023-06-18T15:41:17.562Z,29.70
2023-06-18T15:43:46.847Z,29.60
2023-06-18T15:46:17.063Z,29.40
2023-06-18T15:48:47.292Z,29.40
2023-06-18T15:51:14.077Z,29.30
2023-06-18T15:53:48.640Z,29.40
2023-06-18T15:56:16.135Z,29.60
2023-06-18T15:58:45.782Z,29.60
2023-06-18T16:01:12.654Z,29.50
2023-06-18T16:03:39.411Z,29.50
2023-06-18T16:06:08.423Z,29.70
2023-06-18T16:08:35.221Z,29.80
2023-06-18T16:11:01.950Z,29.90
2023-06-18T16:13:30.990Z,29.80
2023-06-18T16:15:57.840Z,29.50
2023-06-18T16:18:27.175Z,29.60
2023-06-18T16:20:53.855Z,29.60
2023-06-18T16:23:21.067Z,29.40
2023-06-18T16:25:50.067Z,29.70
2023-06-18T16:28:19.224Z,29.70
2023-06-18T16:30:45.964Z,29.50
2023-06-18T16:33:12.905Z,29.40
2023-06-18T16:35:39.725Z,29.20
2023-06-18T16:38:06.852Z,29.30
2023-06-18T16:40:34.218Z,29.40
2023-06-18T16:43:01.621Z,29.30
2023-06-18T16:45:28.789Z,29.30
2023-06-18T16:47:58.030Z,29.30
2023-06-18T16:50:26.164Z,29.30
2023-06-18T16:52:52.880Z,29.10
2023-06-18T16:55:22.029Z,29.10
2023-06-18T16:57:52.294Z,29.00
2023-06-18T17:00:19.793Z,28.90
2023-06-18T17:02:47.048Z,28.70
2023-06-18T17:05:14.405Z,28.60
2023-06-18T17:07:43.459Z,28.60
2023-06-18T17:10:10.850Z,28.60
2023-06-18T17:12:37.637Z,28.50
2023-06-18T17:15:05.017Z,28.50
2023-06-18T17:17:33.056Z,28.30
2023-06-18T17:20:04.835Z,28.20
2023-06-18T17:22:31.566Z,28.10
2023-06-18T17:25:00.444Z,28.00
2023-06-18T17:27:27.527Z,27.90
2023-06-18T17:29:54.625Z,27.80
2023-06-18T17:32:21.400Z,27.60
2023-06-18T17:34:48.243Z,27.20
2023-06-18T17:37:15.082Z,27.00
2023-06-18T17:39:44.043Z,26.70
2023-06-18T17:42:10.844Z,26.60
2023-06-18T17:44:41.328Z,26.30
2023-06-18T17:47:08.178Z,26.30
2023-06-18T17:49:38.328Z,26.10
2023-06-18T17:52:06.099Z,26.20
2023-06-18T17:54:32.974Z,26.20
2023-06-18T17:56:59.694Z,26.30
2023-06-18T17:59:26.387Z,26.20
2023-06-18T18:01:53.299Z,26.10
2023-06-18T18:04:20.779Z,26.10
2023-06-18T18:06:48.444Z,26.10
2023-06-18T18:09:15.525Z,26.00
2023-06-18T18:11:42.687Z,26.10
2023-06-18T18:14:09.410Z,26.00
2023-06-18T18:16:36.362Z,25.80
2023-06-18T18:19:03.556Z,25.50
2023-06-18T18:23:57.922Z,25.20
2023-06-18T18:26:43.283Z,25.20
2023-06-18T18:29:17.145Z,25.20
2023-06-18T18:31:44.522Z,25.10
2023-06-18T18:34:14.189Z,25.20
2023-06-18T18:36:41.065Z,25.30
2023-06-18T18:39:08.060Z,25.20
2023-06-18T18:41:36.979Z,24.80
2023-06-18T18:44:04.226Z,24.70
2023-06-18T18:46:30.960Z,24.70
2023-06-18T18:48:58.918Z,24.50
2023-06-18T18:51:28.106Z,24.50
2023-06-18T18:53:54.827Z,24.30
2023-06-18T18:56:21.996Z,24.30
2023-06-18T18:58:49.639Z,24.20
2023-06-18T19:01:16.765Z,24.30
2023-06-18T19:03:45.992Z,24.20
2023-06-18T19:06:15.032Z,24.30
2023-06-18T19:08:41.727Z,24.10
2023-06-18T19:11:10.808Z,24.00
2023-06-18T19:13:39.816Z,23.80
2023-06-18T19:18:38.920Z,23.80
2023-06-18T19:21:08.441Z,23.60
2023-06-18T19:23:35.224Z,23.50
2023-06-18T19:26:02.387Z,23.40
2023-06-18T19:28:32.558Z,23.40
2023-06-18T19:30:59.325Z,23.30
2023-06-18T19:33:31.639Z,23.30
2023-06-18T19:35:58.428Z,23.30
2023-06-18T19:38:27.990Z,23.40
2023-06-18T19:40:54.883Z,23.00
2023-06-18T19:43:21.990Z,23.10
2023-06-18T19:45:51.336Z,23.00
2023-06-18T19:48:21.225Z,22.90
2023-06-18T19:50:48.590Z,22.80
2023-06-18T19:53:17.974Z,23.00
2023-06-18T19:55:49.646Z,23.40
2023-06-18T19:58:16.361Z,23.40
2023-06-18T20:00:43.183Z,23.20
2023-06-18T20:03:15.061Z,22.70
2023-06-18T20:05:44.256Z,22.60
2023-06-18T20:08:10.984Z,23.00
2023-06-18T20:13:05.915Z,22.50
2023-06-18T20:15:35.161Z,22.40
2023-06-18T20:18:03.107Z,22.50
2023-06-18T20:20:29.874Z,22.40
2023-06-18T20:22:56.728Z,22.40
2023-06-18T20:25:25.648Z,22.30
2023-06-18T20:27:54.545Z,22.30
2023-06-18T20:30:21.490Z,22.40
2023-06-18T20:32:50.855Z,22.30
2023-06-18T20:35:19.873Z,21.90
2023-06-18T20:37:47.967Z,22.00
2023-06-18T20:40:18.325Z,22.20
2023-06-18T20:42:47.690Z,22.00
2023-06-18T20:45:19.458Z,22.00
2023-06-18T20:47:46.341Z,21.80
2023-06-18T20:50:13.177Z,21.60
2023-06-18T20:52:39.966Z,21.60
2023-06-18T20:55:07.223Z,21.70
2023-06-18T20:57:36.490Z,21.70
2023-06-18T21:00:06.553Z,21.70
2023-06-18T21:02:35.597Z,21.80
2023-06-18T21:05:04.748Z,21.60
2023-06-18T21:07:31.460Z,21.50
2023-06-18T21:10:00.425Z,21.80
2023-06-18T21:12:27.177Z,22.00
2023-06-18T21:14:56.451Z,21.80
2023-06-18T21:17:23.331Z,21.70
2023-06-18T21:19:50.164Z,21.70
2023-06-18T21:22:19.439Z,21.80
2023-06-18T21:24:48.519Z,21.90
2023-06-18T21:27:17.810Z,21.70
2023-06-18T21:29:44.534Z,21.60
2023-06-18T21:32:11.466Z,21.40
2023-06-18T21:34:38.244Z,21.50
2023-06-18T21:37:05.266Z,21.40
2023-06-18T21:39:36.755Z,21.10
2023-06-18T21:42:06.075Z,21.10
2023-06-18T21:44:32.804Z,21.00
2023-06-18T21:47:01.712Z,21.00
2023-06-18T21:49:28.450Z,21.10
2023-06-18T21:51:55.117Z,21.00
2023-06-18T21:54:24.194Z,20.70
2023-06-18T21:56:54.846Z,20.40
2023-06-18T21:59:22.138Z,20.40
2023-06-18T22:01:50.512Z,20.30
2023-06-18T22:04:19.873Z,20.30
2023-06-18T22:06:46.618Z,20.40
2023-06-18T22:09:13.404Z,20.50
2023-06-18T22:11:40.139Z,20.30
2023-06-18T22:14:09.053Z,20.20
2023-06-18T22:16:35.894Z,20.00
2023-06-18T22:19:13.400Z,20.20
2023-06-18T22:21:40.391Z,20.20
2023-06-18T22:24:07.437Z,20.40
2023-06-18T22:26:37.020Z,20.20
2023-06-18T22:29:04.209Z,20.40
2023-06-18T22:31:33.129Z,20.40
2023-06-18T22:34:02.053Z,20.00
2023-06-18T22:36:30.960Z,20.70
2023-06-18T22:38:57.750Z,20.00
2023-06-18T22:41:29.223Z,20.00
2023-06-18T22:43:58.218Z,19.80
2023-06-18T22:46:25.029Z,19.80
2023-06-18T22:48:51.889Z,19.80
2023-06-18T22:51:20.728Z,20.10
2023-06-18T22:53:47.454Z,20.00
2023-06-18T22:56:14.235Z,19.90
2023-06-18T22:58:40.939Z,19.80
2023-06-18T23:01:10.150Z,19.50
2023-06-18T23:03:39.260Z,19.50
2023-06-18T23:06:06.193Z,19.70
2023-06-18T23:08:32.887Z,19.50
2023-06-18T23:11:02.992Z,19.40
2023-06-18T23:13:32.227Z,19.40
2023-06-18T23:15:58.938Z,19.20
2023-06-18T23:18:28.094Z,19.20
2023-06-18T23:20:57.767Z,19.30
2023-06-18T23:23:30.724Z,19.30
2023-06-18T23:26:00.002Z,19.40
2023-06-18T23:28:26.889Z,20.10
2023-06-18T23:30:53.758Z,19.30
2023-06-18T23:33:21.003Z,19.60
2023-06-18T23:35:47.989Z,19.50
2023-06-18T23:38:17.205Z,20.00
2023-06-18T23:40:43.893Z,19.30
2023-06-18T23:43:12.859Z,19.50
2023-06-18T23:45:39.561Z,19.10
2023-06-18T23:48:06.393Z,19.10
2023-06-18T23:50:33.126Z,19.40
2023-06-18T23:52:59.838Z,19.20
2023-06-18T23:55:26.589Z,19.20
2023-06-18T23:57:53.334Z,19.30
